Time;durP1;ratioP1;P1;durP2;ratioP2;P2;SDS_P1;SDS_P2;PMS_P1;PMS_P2;Temp;Humidity;BMP_temperature;BMP_pressure;BME280_temperature;BME280_humidity;BME280_pressure;Samples;Min_cycle;Max_cycle;Signal;HPM_P1;HPM_P2
2020/12/25 00:00:22;;;;;;;14.70;2.90;;;;;;;;;;5052025;28;20025;-80
2020/12/25 00:02:48;;;;;;;12.90;2.65;;;;;;;;;;5052163;28;20032;-80
2020/12/25 00:05:14;;;;;;;9.15;2.50;;;;;;;;;;5051739;28;20025;-80
2020/12/25 00:07:40;;;;;;;7.93;2.55;;;;;;;;;;5051969;28;20338;-80
2020/12/25 00:10:06;;;;;;;17.80;3.50;;;;;;;;;;5051945;28;20025;-81
2020/12/25 00:12:32;;;;;;;11.90;2.40;;;;;;;;;;5052958;28;20522;-80
2020/12/25 00:14:58;;;;;;;9.93;2.78;;;;;;;;;;5051848;28;20476;-80
2020/12/25 00:17:24;;;;;;;10.88;2.20;;;;;;;;;;5053154;28;20025;-80
2020/12/25 00:19:50;;;;;;;10.13;2.13;;;;;;;;;;5051777;28;20049;-80
2020/12/25 00:22:16;;;;;;;10.20;2.55;;;;;;;;;;5051437;28;20017;-79
2020/12/25 00:24:42;;;;;;;14.88;2.58;;;;;;;;;;5057443;28;20016;-80
2020/12/25 00:27:08;;;;;;;9.68;1.90;;;;;;;;;;5071534;28;20107;-80
2020/12/25 00:29:35;;;;;;;11.80;2.33;;;;;;;;;;5070673;28;20143;-79
2020/12/25 00:32:01;;;;;;;15.82;3.17;;;;;;;;;;5071244;28;20044;-79
2020/12/25 00:34:27;;;;;;;14.98;2.03;;;;;;;;;;5071218;28;20024;-79
2020/12/25 00:36:53;;;;;;;11.27;2.10;;;;;;;;;;5072792;28;20016;-79
2020/12/25 00:39:19;;;;;;;13.70;2.60;;;;;;;;;;5070845;28;20502;-79
2020/12/25 00:41:46;;;;;;;11.15;1.95;;;;;;;;;;5071353;28;20460;-79
2020/12/25 00:44:12;;;;;;;9.68;2.42;;;;;;;;;;5071332;28;20020;-80
2020/12/25 00:46:39;;;;;;;12.95;3.08;;;;;;;;;;5071307;28;20027;-79
2020/12/25 00:49:05;;;;;;;11.30;2.53;;;;;;;;;;5070863;28;20141;-80
2020/12/25 00:51:31;;;;;;;10.70;2.20;;;;;;;;;;5071011;28;20048;-80
2020/12/25 00:53:57;;;;;;;13.65;2.17;;;;;;;;;;5071181;28;20021;-81
2020/12/25 00:56:23;;;;;;;10.98;1.95;;;;;;;;;;5072510;28;20028;-81
2020/12/25 00:58:49;;;;;;;12.98;2.85;;;;;;;;;;5071062;28;20027;-80
2020/12/25 01:01:15;;;;;;;11.05;2.20;;;;;;;;;;5070983;28;20013;-80
2020/12/25 01:03:43;;;;;;;12.43;2.13;;;;;;;;;;5071190;28;20023;-80
2020/12/25 01:06:13;;;;;;;14.73;2.88;;;;;;;;;;5071058;28;20025;-79
2020/12/25 01:08:39;;;;;;;10.63;2.85;;;;;;;;;;5070753;28;20360;-79
2020/12/25 01:11:06;;;;;;;12.50;2.50;;;;;;;;;;5070982;28;20008;-79
2020/12/25 01:13:35;;;;;;;16.85;3.05;;;;;;;;;;5070704;28;20031;-78
2020/12/25 01:16:18;;;;;;;13.93;2.42;;;;;;;;;;5070862;28;20017;-78
2020/12/25 01:18:45;;;;;;;13.20;2.63;;;;;;;;;;5070864;28;20025;-80
2020/12/25 01:21:12;;;;;;;16.98;1.90;;;;;;;;;;5070635;28;20051;-79
2020/12/25 01:23:38;;;;;;;15.40;2.67;;;;;;;;;;5070592;28;20016;-80
2020/12/25 01:26:06;;;;;;;14.20;2.50;;;;;;;;;;5053671;28;20450;-81
2020/12/25 01:28:33;;;;;;;10.43;2.53;;;;;;;;;;5050468;28;20132;-80
2020/12/25 01:30:59;;;;;;;11.68;2.83;;;;;;;;;;5052272;28;20041;-81
2020/12/25 01:33:25;;;;;;;11.15;1.75;;;;;;;;;;5050408;28;20083;-81
2020/12/25 01:35:51;;;;;;;11.45;2.15;;;;;;;;;;5050757;28;20021;-81
2020/12/25 01:38:17;;;;;;;16.42;3.03;;;;;;;;;;5050572;28;20043;-81
2020/12/25 01:40:43;;;;;;;13.02;2.25;;;;;;;;;;5051754;28;20047;-81
2020/12/25 01:43:09;;;;;;;8.25;2.35;;;;;;;;;;5054763;28;20466;-81
2020/12/25 01:45:35;;;;;;;11.55;1.98;;;;;;;;;;5054603;28;20025;-80
2020/12/25 01:48:01;;;;;;;16.27;2.67;;;;;;;;;;5054665;28;20013;-80
2020/12/25 01:50:28;;;;;;;13.75;2.03;;;;;;;;;;5054477;28;20041;-80
2020/12/25 01:52:55;;;;;;;11.65;2.38;;;;;;;;;;5055584;28;20358;-81
2020/12/25 01:55:26;;;;;;;11.25;3.35;;;;;;;;;;5054258;28;20021;-80
2020/12/25 01:57:55;;;;;;;8.43;1.50;;;;;;;;;;5054519;28;20021;-80
2020/12/25 02:00:22;;;;;;;19.33;3.13;;;;;;;;;;5054313;28;20338;-82
2020/12/25 02:02:48;;;;;;;10.13;1.98;;;;;;;;;;5054402;28;20465;-82
2020/12/25 02:05:14;;;;;;;11.00;1.90;;;;;;;;;;5055953;28;20024;-82
2020/12/25 02:07:40;;;;;;;8.55;2.03;;;;;;;;;;5054111;28;20489;-82
2020/12/25 02:10:06;;;;;;;19.23;2.67;;;;;;;;;;5054289;28;20029;-81
2020/12/25 02:12:33;;;;;;;16.15;4.22;;;;;;;;;;5053758;28;20021;-83
2020/12/25 02:14:59;;;;;;;18.52;2.72;;;;;;;;;;5054247;28;20035;-82
2020/12/25 02:17:25;;;;;;;12.13;1.88;;;;;;;;;;5055506;28;20041;-81
2020/12/25 02:19:51;;;;;;;13.77;2.50;;;;;;;;;;5054049;28;20063;-82
2020/12/25 02:22:17;;;;;;;16.02;2.72;;;;;;;;;;5054084;28;20021;-81
2020/12/25 02:24:43;;;;;;;12.60;2.28;;;;;;;;;;5053748;28;20020;-81
2020/12/25 02:27:09;;;;;;;12.98;2.65;;;;;;;;;;5054060;28;20415;-82
2020/12/25 02:29:35;;;;;;;14.32;2.72;;;;;;;;;;5053629;28;20102;-81
2020/12/25 02:32:01;;;;;;;13.32;2.65;;;;;;;;;;5053482;28;20081;-81
2020/12/25 02:34:27;;;;;;;10.85;1.80;;;;;;;;;;5053554;28;20044;-82
2020/12/25 02:36:53;;;;;;;11.13;1.95;;;;;;;;;;5053791;28;20417;-82
2020/12/25 02:39:19;;;;;;;16.38;2.65;;;;;;;;;;5055099;28;20449;-79
2020/12/25 02:41:45;;;;;;;11.30;2.10;;;;;;;;;;5055027;28;20025;-78
2020/12/25 02:44:11;;;;;;;13.50;2.22;;;;;;;;;;5053699;28;20013;-79
2020/12/25 02:46:37;;;;;;;10.32;2.13;;;;;;;;;;5053436;28;20032;-80
2020/12/25 02:49:03;;;;;;;11.00;1.95;;;;;;;;;;5053479;28;20025;-80
2020/12/25 02:51:29;;;;;;;9.77;1.75;;;;;;;;;;5054606;28;20016;-80
2020/12/25 02:53:55;;;;;;;11.20;1.60;;;;;;;;;;5052793;28;20107;-79
2020/12/25 02:56:21;;;;;;;8.48;1.98;;;;;;;;;;5053427;28;20112;-79
2020/12/25 02:58:47;;;;;;;9.20;2.17;;;;;;;;;;5054734;28;20032;-80
2020/12/25 03:01:14;;;;;;;15.48;3.08;;;;;;;;;;5053145;28;20120;-79
2020/12/25 03:03:40;;;;;;;16.92;2.78;;;;;;;;;;5054076;28;20017;-80
2020/12/25 03:06:06;;;;;;;18.33;2.25;;;;;;;;;;5053041;28;20361;-80
2020/12/25 03:08:33;;;;;;;15.05;1.88;;;;;;;;;;5052018;28;20029;-80
2020/12/25 03:10:59;;;;;;;10.82;2.10;;;;;;;;;;5052550;28;20112;-80
2020/12/25 03:13:25;;;;;;;9.80;1.80;;;;;;;;;;5052328;28;20028;-80
2020/12/25 03:15:51;;;;;;;12.57;2.53;;;;;;;;;;5053063;28;20017;-80
2020/12/25 03:18:17;;;;;;;9.82;2.13;;;;;;;;;;5053008;28;20082;-80
2020/12/25 03:20:43;;;;;;;11.43;2.05;;;;;;;;;;5052814;28;20029;-80
2020/12/25 03:23:09;;;;;;;8.88;2.65;;;;;;;;;;5052924;28;20017;-80
2020/12/25 03:25:35;;;;;;;8.85;2.00;;;;;;;;;;5052630;28;20024;-80
2020/12/25 03:28:01;;;;;;;9.98;1.85;;;;;;;;;;5052813;28;20055;-80
2020/12/25 03:30:27;;;;;;;6.45;1.55;;;;;;;;;;5053667;28;20045;-80
2020/12/25 03:32:53;;;;;;;9.10;1.60;;;;;;;;;;5054330;28;20028;-80
2020/12/25 03:35:19;;;;;;;8.45;1.50;;;;;;;;;;5052769;28;20021;-81
2020/12/25 03:37:45;;;;;;;3.58;0.95;;;;;;;;;;5054110;28;20017;-80
2020/12/25 03:40:11;;;;;;;6.22;1.30;;;;;;;;;;5052585;28;20449;-80
2020/12/25 03:42:37;;;;;;;10.07;1.23;;;;;;;;;;5052381;28;20017;-80
2020/12/25 03:45:04;;;;;;;7.85;1.13;;;;;;;;;;5053591;28;20416;-80
2020/12/25 03:47:30;;;;;;;7.57;1.30;;;;;;;;;;5052213;28;20074;-80
2020/12/25 03:49:56;;;;;;;6.03;1.23;;;;;;;;;;5052328;28;20020;-80
2020/12/25 03:52:23;;;;;;;3.90;1.02;;;;;;;;;;5052425;28;20017;-80
2020/12/25 03:54:49;;;;;;;10.68;1.23;;;;;;;;;;5053703;28;20032;-80
2020/12/25 03:57:15;;;;;;;8.85;1.70;;;;;;;;;;5052346;28;20488;-80
2020/12/25 03:59:41;;;;;;;2.63;1.10;;;;;;;;;;5051977;28;20361;-80
2020/12/25 04:02:07;;;;;;;4.38;0.90;;;;;;;;;;5052304;28;20052;-80
2020/12/25 04:04:33;;;;;;;8.27;1.17;;;;;;;;;;5052286;28;20024;-80
2020/12/25 04:06:59;;;;;;;5.88;1.10;;;;;;;;;;5052096;28;20021;-80
2020/12/25 04:09:25;;;;;;;3.95;1.55;;;;;;;;;;5053319;28;20373;-80
2020/12/25 04:11:51;;;;;;;7.72;1.92;;;;;;;;;;5052051;28;20468;-79
2020/12/25 04:14:18;;;;;;;6.18;1.58;;;;;;;;;;5051978;28;20017;-80
2020/12/25 04:16:44;;;;;;;6.75;2.15;;;;;;;;;;5051666;28;20021;-80
2020/12/25 04:19:10;;;;;;;7.63;1.38;;;;;;;;;;5051881;28;20357;-82
2020/12/25 04:21:36;;;;;;;5.65;1.05;;;;;;;;;;5051565;28;20434;-82
2020/12/25 04:24:02;;;;;;;6.38;1.17;;;;;;;;;;5051657;28;20078;-82
2020/12/25 04:26:29;;;;;;;4.25;1.13;;;;;;;;;;5051506;28;20381;-82
2020/12/25 04:28:55;;;;;;;8.45;1.35;;;;;;;;;;5051634;28;20028;-82
2020/12/25 04:31:24;;;;;;;5.47;1.00;;;;;;;;;;5051615;28;20377;-82
2020/12/25 04:33:50;;;;;;;7.63;1.70;;;;;;;;;;5051255;28;20023;-82
2020/12/25 04:36:16;;;;;;;5.20;1.10;;;;;;;;;;5051284;28;20021;-82
2020/12/25 04:38:42;;;;;;;4.28;0.90;;;;;;;;;;5052862;28;20029;-80
2020/12/25 04:41:08;;;;;;;6.10;1.05;;;;;;;;;;5051601;28;20075;-82
2020/12/25 04:43:36;;;;;;;6.38;0.90;;;;;;;;;;5051246;28;20017;-82
2020/12/25 04:46:02;;;;;;;5.10;0.90;;;;;;;;;;5051363;28;20026;-82
2020/12/25 04:48:28;;;;;;;4.43;0.90;;;;;;;;;;5051001;28;20139;-82
2020/12/25 04:50:55;;;;;;;1.55;0.90;;;;;;;;;;5051382;28;20013;-82
2020/12/25 04:53:21;;;;;;;9.07;1.08;;;;;;;;;;5051285;28;20017;-82
2020/12/25 04:55:47;;;;;;;4.43;0.93;;;;;;;;;;5051097;28;20025;-82
2020/12/25 04:58:13;;;;;;;7.03;1.40;;;;;;;;;;5051187;28;20551;-82
2020/12/25 05:00:39;;;;;;;6.05;0.90;;;;;;;;;;5052581;28;20024;-82
2020/12/25 05:03:07;;;;;;;8.07;0.90;;;;;;;;;;5051314;28;20021;-79
2020/12/25 05:05:33;;;;;;;4.28;1.10;;;;;;;;;;5050855;28;20013;-80
2020/12/25 05:08:00;;;;;;;7.93;1.10;;;;;;;;;;5051124;28;20506;-81
2020/12/25 05:10:26;;;;;;;6.22;1.00;;;;;;;;;;5052348;28;20067;-80
2020/12/25 05:12:53;;;;;;;5.15;0.85;;;;;;;;;;5050909;28;20132;-80
2020/12/25 05:15:19;;;;;;;4.70;1.35;;;;;;;;;;5052013;28;20017;-80
2020/12/25 05:17:45;;;;;;;7.38;1.13;;;;;;;;;;5050856;28;20112;-80
2020/12/25 05:20:11;;;;;;;7.43;3.42;;;;;;;;;;5050913;28;20062;-80
2020/12/25 05:22:38;;;;;;;4.55;0.90;;;;;;;;;;5051713;28;20112;-79
2020/12/25 05:25:05;;;;;;;7.47;1.10;;;;;;;;;;5050866;28;20024;-80
2020/12/25 05:27:31;;;;;;;6.07;1.15;;;;;;;;;;5050679;28;20029;-79
2020/12/25 05:29:58;;;;;;;6.32;0.90;;;;;;;;;;5050701;28;20033;-79
2020/12/25 05:32:28;;;;;;;3.47;0.85;;;;;;;;;;5052270;28;20009;-81
2020/12/25 05:34:55;;;;;;;8.38;1.23;;;;;;;;;;5050591;28;20029;-80
2020/12/25 05:37:22;;;;;;;3.63;0.75;;;;;;;;;;5050526;28;20047;-81
2020/12/25 05:39:48;;;;;;;3.45;1.00;;;;;;;;;;5050569;28;20093;-81
2020/12/25 05:42:14;;;;;;;4.72;0.93;;;;;;;;;;5050746;28;20017;-80
2020/12/25 05:44:41;;;;;;;3.15;0.75;;;;;;;;;;5051848;28;20464;-81
2020/12/25 05:47:08;;;;;;;9.98;1.90;;;;;;;;;;5050804;28;20082;-81
2020/12/25 05:49:34;;;;;;;3.70;0.80;;;;;;;;;;5050476;28;20025;-81
2020/12/25 05:52:00;;;;;;;6.50;1.25;;;;;;;;;;5051721;28;20368;-80
2020/12/25 05:54:28;;;;;;;5.18;1.00;;;;;;;;;;5050612;28;20017;-80
2020/12/25 05:56:55;;;;;;;6.95;1.00;;;;;;;;;;5050435;28;20021;-80
2020/12/25 05:59:23;;;;;;;5.18;1.20;;;;;;;;;;5050627;28;20028;-81
2020/12/25 06:01:49;;;;;;;6.57;0.95;;;;;;;;;;5050419;28;20021;-81
2020/12/25 06:04:16;;;;;;;2.38;0.85;;;;;;;;;;5051939;28;20492;-81
2020/12/25 06:06:42;;;;;;;5.53;0.90;;;;;;;;;;5050299;28;20021;-81
2020/12/25 06:09:11;;;;;;;6.68;1.17;;;;;;;;;;5050454;28;20025;-81
2020/12/25 06:11:37;;;;;;;4.28;1.35;;;;;;;;;;5050252;28;20404;-80
2020/12/25 06:14:03;;;;;;;8.38;1.48;;;;;;;;;;5050552;28;20013;-81
2020/12/25 06:16:30;;;;;;;7.25;2.58;;;;;;;;;;5050519;28;20025;-81
2020/12/25 06:18:58;;;;;;;11.07;2.17;;;;;;;;;;5050204;28;20457;-80
2020/12/25 06:21:29;;;;;;;7.55;1.67;;;;;;;;;;5051458;28;20414;-79
2020/12/25 06:23:56;;;;;;;6.18;1.13;;;;;;;;;;5050233;28;20064;-79
2020/12/25 06:26:24;;;;;;;10.05;1.60;;;;;;;;;;5050245;28;20028;-80
2020/12/25 06:28:51;;;;;;;7.00;1.38;;;;;;;;;;5052643;28;20017;-80
2020/12/25 06:31:32;;;;;;;6.90;1.20;;;;;;;;;;5053705;28;20048;-80
2020/12/25 06:34:01;;;;;;;17.33;1.92;;;;;;;;;;5055073;28;20071;-80
2020/12/25 06:36:30;;;;;;;9.00;1.40;;;;;;;;;;5053625;28;20477;-80
2020/12/25 06:38:57;;;;;;;13.43;1.43;;;;;;;;;;5053354;28;20094;-81
2020/12/25 06:41:24;;;;;;;8.75;1.55;;;;;;;;;;5053478;28;20025;-80
2020/12/25 06:43:50;;;;;;;15.52;2.53;;;;;;;;;;5053253;28;20024;-80
2020/12/25 06:46:27;;;;;;;18.50;3.58;;;;;;;;;;5053507;28;20437;-80
2020/12/25 06:48:54;;;;;;;9.63;2.10;;;;;;;;;;5053364;28;20052;-80
2020/12/25 06:51:22;;;;;;;10.30;2.42;;;;;;;;;;5053500;28;20377;-79
2020/12/25 06:53:49;;;;;;;10.18;1.63;;;;;;;;;;5053244;28;20107;-80
2020/12/25 06:56:19;;;;;;;7.97;1.80;;;;;;;;;;5053481;28;20074;-80
2020/12/25 06:58:46;;;;;;;9.13;2.08;;;;;;;;;;5053089;28;20315;-80
2020/12/25 07:01:13;;;;;;;12.55;1.88;;;;;;;;;;5053493;28;20075;-81
2020/12/25 07:03:39;;;;;;;13.15;2.25;;;;;;;;;;5053099;28;20028;-81
2020/12/25 07:06:06;;;;;;;7.78;1.63;;;;;;;;;;5053285;28;20020;-81
2020/12/25 07:08:34;;;;;;;8.73;1.65;;;;;;;;;;5054404;28;20051;-81
2020/12/25 07:11:01;;;;;;;13.85;2.38;;;;;;;;;;5052952;28;20021;-81
2020/12/25 07:13:27;;;;;;;15.05;1.85;;;;;;;;;;5053156;28;20102;-81
2020/12/25 07:15:53;;;;;;;8.65;1.40;;;;;;;;;;5054202;28;20072;-81
2020/12/25 07:18:19;;;;;;;8.20;1.50;;;;;;;;;;5057912;28;20021;-80
2020/12/25 07:20:45;;;;;;;7.18;1.20;;;;;;;;;;5063991;28;20097;-80
2020/12/25 07:23:11;;;;;;;7.53;1.80;;;;;;;;;;5063121;28;20056;-79
2020/12/25 07:25:46;;;;;;;6.18;1.42;;;;;;;;;;5064521;28;20100;-81
2020/12/25 07:28:12;;;;;;;8.27;1.20;;;;;;;;;;5062623;28;20012;-81
2020/12/25 07:30:38;;;;;;;12.70;1.60;;;;;;;;;;5061832;28;20045;-81
2020/12/25 07:33:05;;;;;;;9.20;1.60;;;;;;;;;;5060356;28;20079;-80
2020/12/25 07:35:31;;;;;;;14.20;1.65;;;;;;;;;;5061809;28;20391;-82
2020/12/25 07:37:57;;;;;;;12.38;2.05;;;;;;;;;;5063185;28;20106;-84
2020/12/25 07:40:23;;;;;;;16.00;3.85;;;;;;;;;;5060312;28;20373;-84
2020/12/25 07:42:50;;;;;;;12.45;2.15;;;;;;;;;;5059040;28;20070;-81
2020/12/25 07:45:17;;;;;;;12.48;1.80;;;;;;;;;;5061739;28;20458;-80
2020/12/25 07:47:43;;;;;;;11.98;1.90;;;;;;;;;;5062519;28;20044;-79
2020/12/25 07:50:09;;;;;;;14.05;2.13;;;;;;;;;;5059560;28;20364;-80
2020/12/25 07:52:35;;;;;;;9.98;1.70;;;;;;;;;;5068862;28;20024;-81
2020/12/25 07:55:01;;;;;;;16.42;2.55;;;;;;;;;;5073500;28;20090;-82
2020/12/25 07:57:27;;;;;;;10.20;2.28;;;;;;;;;;5072383;28;20549;-82
2020/12/25 07:59:55;;;;;;;12.85;2.45;;;;;;;;;;5071967;28;20342;-82
2020/12/25 08:02:22;;;;;;;8.50;1.10;;;;;;;;;;5072177;28;20408;-82
2020/12/25 08:04:48;;;;;;;8.02;1.63;;;;;;;;;;5071886;28;20050;-83
2020/12/25 08:07:15;;;;;;;12.25;1.70;;;;;;;;;;5073512;28;20020;-83
2020/12/25 08:09:41;;;;;;;10.48;1.70;;;;;;;;;;5051721;28;20067;-83
2020/12/25 08:12:10;;;;;;;11.48;1.83;;;;;;;;;;5051400;28;20087;-84
2020/12/25 08:14:38;;;;;;;8.82;1.20;;;;;;;;;;5052783;28;20096;-82
2020/12/25 08:17:05;;;;;;;7.25;1.10;;;;;;;;;;5052617;28;20017;-82
2020/12/25 08:19:34;;;;;;;10.75;1.80;;;;;;;;;;5052885;28;20056;-83
2020/12/25 08:22:08;;;;;;;30.92;15.30;;;;;;;;;;5051213;28;20025;-83
2020/12/25 08:24:35;;;;;;;8.90;1.60;;;;;;;;;;5052140;28;20429;-84
2020/12/25 08:27:02;;;;;;;12.55;2.20;;;;;;;;;;5050649;28;20017;-82
2020/12/25 08:29:32;;;;;;;5.35;1.35;;;;;;;;;;5051064;28;20033;-82
2020/12/25 08:32:16;;;;;;;9.00;1.40;;;;;;;;;;5051723;28;20045;-82
2020/12/25 08:34:42;;;;;;;11.07;2.42;;;;;;;;;;5052066;28;20027;-82
2020/12/25 08:37:11;;;;;;;28.15;14.98;;;;;;;;;;5050982;28;20103;-83
2020/12/25 08:39:37;;;;;;;7.68;1.73;;;;;;;;;;5050671;28;20025;-81
2020/12/25 08:42:03;;;;;;;17.88;2.22;;;;;;;;;;5050771;28;20025;-83
2020/12/25 08:44:29;;;;;;;11.55;2.70;;;;;;;;;;5050860;28;20032;-83
2020/12/25 08:47:08;;;;;;;11.15;4.13;;;;;;;;;;5051804;28;20120;-81
2020/12/25 08:49:34;;;;;;;8.77;1.75;;;;;;;;;;5050660;28;20028;-82
2020/12/25 08:52:00;;;;;;;9.73;2.50;;;;;;;;;;5049988;28;20028;-82
2020/12/25 08:54:27;;;;;;;11.52;2.70;;;;;;;;;;5052045;28;20017;-83
2020/12/25 08:56:53;;;;;;;10.02;3.25;;;;;;;;;;5050338;28;20060;-82
2020/12/25 08:59:20;;;;;;;12.00;2.53;;;;;;;;;;5050585;28;20079;-83
2020/12/25 09:01:47;;;;;;;10.88;2.22;;;;;;;;;;5062499;28;20399;-83
2020/12/25 09:04:13;;;;;;;11.20;2.05;;;;;;;;;;5052383;28;20021;-81
2020/12/25 09:06:39;;;;;;;7.35;1.30;;;;;;;;;;5050842;28;20013;-82
2020/12/25 09:09:05;;;;;;;14.90;2.45;;;;;;;;;;5051012;28;20036;-82
2020/12/25 09:11:31;;;;;;;10.38;1.70;;;;;;;;;;5051045;28;20024;-81
2020/12/25 09:13:57;;;;;;;9.05;1.65;;;;;;;;;;5050773;28;20065;-81
2020/12/25 09:16:23;;;;;;;10.07;1.73;;;;;;;;;;5058239;28;20125;-82
2020/12/25 09:18:50;;;;;;;11.85;1.77;;;;;;;;;;5062014;28;20034;-82
2020/12/25 09:21:17;;;;;;;8.35;1.73;;;;;;;;;;5052262;28;20021;-82
2020/12/25 09:23:43;;;;;;;10.65;1.55;;;;;;;;;;5050873;28;20024;-83
2020/12/25 09:26:10;;;;;;;12.23;1.85;;;;;;;;;;5050586;28;20020;-83
2020/12/25 09:28:37;;;;;;;7.03;1.50;;;;;;;;;;5050601;28;20058;-83
2020/12/25 09:31:08;;;;;;;9.88;2.22;;;;;;;;;;5050178;28;20069;-83
2020/12/25 09:33:34;;;;;;;8.48;1.85;;;;;;;;;;5050743;28;20017;-83
2020/12/25 09:36:02;;;;;;;7.10;1.50;;;;;;;;;;5050483;28;20025;-83
2020/12/25 09:38:28;;;;;;;8.88;1.67;;;;;;;;;;5051956;28;20024;-83
2020/12/25 09:40:54;;;;;;;10.55;1.45;;;;;;;;;;5051855;28;20021;-82
2020/12/25 09:43:20;;;;;;;9.93;2.10;;;;;;;;;;5050725;28;20111;-82
2020/12/25 09:45:46;;;;;;;6.93;1.90;;;;;;;;;;5055652;28;20468;-83
2020/12/25 09:48:12;;;;;;;11.02;1.63;;;;;;;;;;5060110;28;20024;-82
2020/12/25 09:50:39;;;;;;;9.85;1.63;;;;;;;;;;5059730;28;20067;-82
2020/12/25 09:53:05;;;;;;;7.97;1.13;;;;;;;;;;5058537;28;20091;-83
2020/12/25 09:55:36;;;;;;;9.30;1.40;;;;;;;;;;5060217;28;20024;-82
2020/12/25 09:58:02;;;;;;;8.57;1.85;;;;;;;;;;5070003;28;20024;-81
2020/12/25 10:00:28;;;;;;;7.07;1.60;;;;;;;;;;5071691;28;20028;-82
2020/12/25 10:02:54;;;;;;;6.97;1.45;;;;;;;;;;5073154;28;20017;-83
2020/12/25 10:05:20;;;;;;;9.88;2.28;;;;;;;;;;5074301;28;20079;-84
2020/12/25 10:07:48;;;;;;;14.15;5.25;;;;;;;;;;5075457;28;20020;-82
2020/12/25 10:10:15;;;;;;;7.15;1.30;;;;;;;;;;5074176;28;20036;-82
2020/12/25 10:12:41;;;;;;;8.60;3.03;;;;;;;;;;5074069;28;20016;-83
2020/12/25 10:15:07;;;;;;;14.90;6.07;;;;;;;;;;5074273;28;20085;-83
2020/12/25 10:17:34;;;;;;;5.25;1.70;;;;;;;;;;5074161;28;20575;-82
2020/12/25 10:20:00;;;;;;;5.72;1.25;;;;;;;;;;5073815;28;20536;-83
2020/12/25 10:22:26;;;;;;;6.97;1.63;;;;;;;;;;5074045;28;20491;-82
2020/12/25 10:24:52;;;;;;;5.38;1.23;;;;;;;;;;5066322;28;20028;-84
2020/12/25 10:27:18;;;;;;;4.18;0.88;;;;;;;;;;5053800;28;20021;-84
2020/12/25 10:29:44;;;;;;;4.38;1.23;;;;;;;;;;5055006;28;20028;-83
2020/12/25 10:32:10;;;;;;;6.60;1.85;;;;;;;;;;5053684;28;20041;-83
2020/12/25 10:34:36;;;;;;;7.43;1.30;;;;;;;;;;5053679;28;20013;-83
2020/12/25 10:37:02;;;;;;;7.60;1.98;;;;;;;;;;5054978;28;20013;-83
2020/12/25 10:39:28;;;;;;;6.53;1.10;;;;;;;;;;5054893;28;20021;-84
2020/12/25 10:41:54;;;;;;;6.78;1.13;;;;;;;;;;5054751;28;20361;-84
2020/12/25 10:44:20;;;;;;;7.78;1.65;;;;;;;;;;5053607;28;20017;-83
2020/12/25 10:46:46;;;;;;;7.22;0.85;;;;;;;;;;5054670;28;20020;-83
2020/12/25 10:49:12;;;;;;;4.78;1.00;;;;;;;;;;5053599;28;20032;-84
2020/12/25 10:51:38;;;;;;;3.53;0.82;;;;;;;;;;5053603;28;20060;-81
2020/12/25 10:54:04;;;;;;;3.83;1.10;;;;;;;;;;5065212;28;20095;-83
2020/12/25 10:56:30;;;;;;;4.72;0.95;;;;;;;;;;5075130;28;20025;-82
2020/12/25 10:58:56;;;;;;;5.30;1.15;;;;;;;;;;5072845;28;20038;-79
2020/12/25 11:01:26;;;;;;;5.57;1.17;;;;;;;;;;5074524;28;20391;-80
2020/12/25 11:03:53;;;;;;;3.58;1.20;;;;;;;;;;5073096;28;20062;-80
2020/12/25 11:06:19;;;;;;;3.33;0.77;;;;;;;;;;5069649;28;20052;-79
2020/12/25 11:08:48;;;;;;;4.13;0.80;;;;;;;;;;5064746;28;20013;-82
2020/12/25 11:11:44;;;;;;;5.18;0.85;;;;;;;;;;5062558;28;20044;-79
2020/12/25 11:14:10;;;;;;;4.68;0.85;;;;;;;;;;5053855;28;20036;-79
2020/12/25 11:16:37;;;;;;;2.67;1.17;;;;;;;;;;5062593;28;20404;-81
2020/12/25 11:19:06;;;;;;;3.15;1.00;;;;;;;;;;5069826;28;20020;-80
2020/12/25 11:21:34;;;;;;;2.47;0.70;;;;;;;;;;5073028;28;20021;-80
2020/12/25 11:24:01;;;;;;;1.42;0.50;;;;;;;;;;5056450;28;20052;-79
2020/12/25 11:26:37;;;;;;;2.42;0.77;;;;;;;;;;5072784;28;20028;-79
2020/12/25 11:29:05;;;;;;;4.68;1.40;;;;;;;;;;5073630;28;20042;-82
2020/12/25 11:31:31;;;;;;;6.45;0.80;;;;;;;;;;5072567;28;20388;-81
2020/12/25 11:33:57;;;;;;;2.63;0.60;;;;;;;;;;5073132;28;20024;-82
2020/12/25 11:36:24;;;;;;;5.18;1.10;;;;;;;;;;5072659;28;20021;-82
2020/12/25 11:38:51;;;;;;;7.65;1.08;;;;;;;;;;5072414;28;20046;-81
2020/12/25 11:41:18;;;;;;;4.82;0.85;;;;;;;;;;5072704;28;20179;-82
2020/12/25 11:43:47;;;;;;;5.65;1.52;;;;;;;;;;5072345;28;20024;-83
2020/12/25 11:46:13;;;;;;;6.03;1.08;;;;;;;;;;5072618;28;20024;-83
2020/12/25 11:48:39;;;;;;;3.38;0.93;;;;;;;;;;5072443;28;20469;-84
2020/12/25 11:51:08;;;;;;;6.00;1.30;;;;;;;;;;5072306;28;20093;-81
2020/12/25 11:53:37;;;;;;;4.63;1.23;;;;;;;;;;5072531;28;20104;-79
2020/12/25 11:56:03;;;;;;;7.30;0.85;;;;;;;;;;5072100;28;20426;-83
2020/12/25 11:58:29;;;;;;;8.95;2.03;;;;;;;;;;5072398;28;20016;-82
2020/12/25 12:00:55;;;;;;;7.00;1.42;;;;;;;;;;5072040;28;20111;-77
2020/12/25 12:03:24;;;;;;;7.65;1.17;;;;;;;;;;5072202;28;20013;-77
2020/12/25 12:05:50;;;;;;;5.60;1.08;;;;;;;;;;5073123;28;20047;-78
2020/12/25 12:08:16;;;;;;;6.25;1.00;;;;;;;;;;5071964;28;20024;-77
2020/12/25 12:10:42;;;;;;;7.90;1.20;;;;;;;;;;5069923;28;20021;-76
2020/12/25 12:13:08;;;;;;;8.18;2.08;;;;;;;;;;5062022;28;20322;-78
2020/12/25 12:15:37;;;;;;;8.68;1.48;;;;;;;;;;5054227;28;20021;-78
2020/12/25 12:18:05;;;;;;;6.77;1.80;;;;;;;;;;5053947;28;20020;-82
2020/12/25 12:20:31;;;;;;;8.02;1.45;;;;;;;;;;5060655;28;20021;-82
2020/12/25 12:22:57;;;;;;;6.35;0.85;;;;;;;;;;5059826;28;20586;-82
2020/12/25 12:25:23;;;;;;;5.28;1.33;;;;;;;;;;5054449;28;20075;-83
2020/12/25 12:27:49;;;;;;;5.45;1.27;;;;;;;;;;5063096;28;20095;-82
2020/12/25 12:30:15;;;;;;;7.13;1.17;;;;;;;;;;5071216;28;20056;-81
2020/12/25 12:32:41;;;;;;;3.97;1.00;;;;;;;;;;5071768;28;20017;-82
2020/12/25 12:35:07;;;;;;;4.57;1.00;;;;;;;;;;5071281;28;20046;-79
2020/12/25 12:37:33;;;;;;;11.82;2.20;;;;;;;;;;5072639;28;20073;-78
2020/12/25 12:39:59;;;;;;;4.90;1.30;;;;;;;;;;5072484;28;20462;-79
2020/12/25 12:42:25;;;;;;;4.78;1.00;;;;;;;;;;5072799;28;20091;-78
2020/12/25 12:44:51;;;;;;;5.82;1.52;;;;;;;;;;5071092;28;20031;-78
2020/12/25 12:47:18;;;;;;;6.00;1.27;;;;;;;;;;5072720;28;20024;-78
2020/12/25 12:49:44;;;;;;;5.68;1.48;;;;;;;;;;5072109;28;20072;-78
2020/12/25 12:52:10;;;;;;;7.45;1.35;;;;;;;;;;5072377;28;20016;-78
2020/12/25 12:54:36;;;;;;;6.07;1.05;;;;;;;;;;5071364;28;20020;-79
2020/12/25 12:57:05;;;;;;;4.88;1.00;;;;;;;;;;5070971;28;20120;-78
2020/12/25 12:59:31;;;;;;;5.07;1.33;;;;;;;;;;5071174;28;20029;-78
2020/12/25 13:01:58;;;;;;;3.30;0.93;;;;;;;;;;5071177;28;20403;-78
2020/12/25 13:04:25;;;;;;;6.45;1.17;;;;;;;;;;5071301;28;20017;-79
2020/12/25 13:06:51;;;;;;;5.35;0.80;;;;;;;;;;5070946;28;20475;-78
2020/12/25 13:09:17;;;;;;;8.20;0.85;;;;;;;;;;5072395;28;20590;-77
2020/12/25 13:11:44;;;;;;;7.13;1.20;;;;;;;;;;5072486;28;20029;-77
2020/12/25 13:14:10;;;;;;;3.88;0.80;;;;;;;;;;5067731;28;20009;-77
2020/12/25 13:16:36;;;;;;;4.30;1.00;;;;;;;;;;5051125;28;20070;-77
2020/12/25 13:19:03;;;;;;;6.60;1.30;;;;;;;;;;5050793;28;20476;-79
2020/12/25 13:21:29;;;;;;;6.38;1.02;;;;;;;;;;5051137;28;20032;-79
2020/12/25 13:23:56;;;;;;;4.80;0.90;;;;;;;;;;5050494;28;20028;-78
2020/12/25 13:26:23;;;;;;;5.65;1.20;;;;;;;;;;5050667;28;20028;-79
2020/12/25 13:28:50;;;;;;;6.10;1.02;;;;;;;;;;5050573;28;20013;-78
2020/12/25 13:31:17;;;;;;;5.40;0.95;;;;;;;;;;5050752;28;20130;-77
2020/12/25 13:33:43;;;;;;;4.03;1.10;;;;;;;;;;5050908;28;20309;-77
2020/12/25 13:36:10;;;;;;;7.18;0.82;;;;;;;;;;5050687;28;20063;-77
2020/12/25 13:38:36;;;;;;;5.13;1.02;;;;;;;;;;5055068;28;20021;-77
2020/12/25 13:41:12;;;;;;;5.78;0.90;;;;;;;;;;5055747;28;20023;-77
2020/12/25 13:43:38;;;;;;;7.20;1.27;;;;;;;;;;5054879;28;20455;-78
2020/12/25 13:46:04;;;;;;;6.70;1.23;;;;;;;;;;5055919;28;20095;-78
2020/12/25 13:48:31;;;;;;;3.92;0.88;;;;;;;;;;5054699;28;20017;-79
2020/12/25 13:50:58;;;;;;;5.00;1.23;;;;;;;;;;5055513;28;20405;-80
2020/12/25 13:53:25;;;;;;;5.93;1.38;;;;;;;;;;5054698;28;20013;-79
2020/12/25 13:55:52;;;;;;;5.43;1.05;;;;;;;;;;5064898;28;20027;-76
2020/12/25 13:58:18;;;;;;;8.88;1.65;;;;;;;;;;5068081;28;20182;-81
2020/12/25 14:00:44;;;;;;;4.75;1.25;;;;;;;;;;5073912;28;20021;-81
2020/12/25 14:03:10;;;;;;;7.40;1.27;;;;;;;;;;5073995;28;20025;-77
2020/12/25 14:05:36;;;;;;;4.75;1.00;;;;;;;;;;5074041;28;20463;-80
2020/12/25 14:08:02;;;;;;;11.38;1.88;;;;;;;;;;5075363;28;20027;-79
2020/12/25 14:10:28;;;;;;;3.58;0.80;;;;;;;;;;5074324;28;20119;-81
2020/12/25 14:12:54;;;;;;;5.47;1.15;;;;;;;;;;5074192;28;20055;-77
2020/12/25 14:15:20;;;;;;;5.93;1.00;;;;;;;;;;5061792;28;20112;-79
2020/12/25 14:17:46;;;;;;;3.85;0.88;;;;;;;;;;5054393;28;20053;-81
2020/12/25 14:20:13;;;;;;;3.95;1.23;;;;;;;;;;5053965;28;20017;-78
2020/12/25 14:22:39;;;;;;;7.75;1.40;;;;;;;;;;5055726;28;20104;-78
2020/12/25 14:25:06;;;;;;;6.60;1.80;;;;;;;;;;5075048;28;20476;-78
2020/12/25 14:27:32;;;;;;;6.65;1.00;;;;;;;;;;5062333;28;20075;-77
2020/12/25 14:29:58;;;;;;;4.28;1.38;;;;;;;;;;5055188;28;20051;-77
2020/12/25 14:32:24;;;;;;;5.82;1.10;;;;;;;;;;5053911;28;20069;-77
2020/12/25 14:34:51;;;;;;;3.35;1.17;;;;;;;;;;5053697;28;20044;-77